JAD weather

Perth Jandakot Airport
Perth, Western Australia, Australia

Public forecast

Using degrees Celsius for public forecast. Weather courtesy of forecast.io.

METAR (pilot weather report)

Retrieved 2017/12/11 21:30 UTC (22 minutes ago):

YPJT 112130Z AUTO 24004KT 7000 // BKN011 20/19 Q1009 RF00.0/000.0

TAF (pilot weather forecast)

Retrieved 2017/12/11 17:00 UTC (5 hours ago):

TAF COR YPJT 111747Z 1117/1212 02005KT CAVOK FM111800 17005KT 9999 BKN010 FM120000 20014KT CAVOK FM120300 22020KT CAVOK